Startpagina
METAR-TAF:

METAR-TAF

Vliegvelden :

Tongatapu, Tonga

breedte: 21-14S, lengte: 175-09W, hoogte: 38 m

Actueel weer

Dit bericht is 47 minuten geleden gemaakt, om 02:00 UTC
Weinig wind
Temperatuur 25°C
Vochtigheid 69%
Druk 1012 hPa
Zicht 10 km of meer
Weinig wolken op 1500 ft
Verspreide wolken op 4000 ft

METAR: NFTF 250200Z 00000KT 9999 FEW015 SCT040 25/19 Q1012

Tijdstip: 15:47 (02:47 UTC)

Verwachting

Dit bericht is 3 uur en het 39 minuten geleden gemaakt, om 23:08 UTC
Verwachting geldig van 25 om 00 UTC tot 25 om 24 UTC
Wind 6 kt uit het zuidzuidoosten
Zicht 10 km of meer
Weinig wolken op 800 ft
Gebroken wolken op 3500 ft
lichte regenbuien
Kans 30% :
Tijdelijke
van 25 om 00 UTC tot 25 om 06 UTC
Zicht: 7000 m
Verspreide wolken op 900 ft
Gebroken wolken op 1500 ft
regenbuien

TAF: NFTF 242308Z 2500/2524 15006KT 9999 -SHRA FEW008 BKN035 PROB30 TEMPO 2500/2506 7000 SHRA SCT009 BKN015

Waarnemingen en weersverwachtingen van meer dan 4000 vliegvelden (METAR en TAF).

De beschikbare stations zijn de gele en rode punten op de kaart.

Ga met uw muis naar het station om de naam te zien.

Klik dan om waarnemingen en weersverwachtingen te zien.

kaart wijzigen: klik op de groene knoppen met een zwart kruis om in te zoomen, op de groene knop met een streepje om uit te zoomen of op de groene pijlen voor aangrenzende kaarten.


METAR-TAF: